sensor_id;sensor_type;location;lat;lon;timestamp;P1;durP1;ratioP1;P2;durP2;ratioP2
24631;SDS011;59977;48.782;9.190;2022-12-10T14:24:39;41.20;;;22.85;;
24631;SDS011;59977;48.782;9.190;2022-12-10T14:27:20;42.63;;;21.58;;
24631;SDS011;59977;48.782;9.190;2022-12-10T14:33:31;36.17;;;21.27;;
24631;SDS011;59977;48.782;9.190;2022-12-10T14:39:57;42.30;;;23.52;;
24631;SDS011;59977;48.782;9.190;2022-12-10T14:46:25;35.85;;;19.92;;
24631;SDS011;59977;48.782;9.190;2022-12-10T14:55:48;35.33;;;19.42;;
24631;SDS011;59977;48.782;9.190;2022-12-10T14:58:57;34.40;;;19.83;;
24631;SDS011;59977;48.782;9.190;2022-12-10T15:08:49;30.33;;;16.30;;
24631;SDS011;59977;48.782;9.190;2022-12-10T15:18:36;35.75;;;20.60;;
24631;SDS011;59977;48.782;9.190;2022-12-10T15:21:25;38.75;;;20.77;;
24631;SDS011;59977;48.782;9.190;2022-12-10T15:24:06;34.05;;;20.58;;
24631;SDS011;59977;48.782;9.190;2022-12-10T15:26:38;34.35;;;20.05;;
24631;SDS011;59977;48.782;9.190;2022-12-10T15:29:26;34.08;;;20.55;;
24631;SDS011;59977;48.782;9.190;2022-12-10T15:32:05;37.95;;;20.98;;
24631;SDS011;59977;48.782;9.190;2022-12-10T15:34:49;32.63;;;19.45;;
24631;SDS011;59977;48.782;9.190;2022-12-10T15:37:21;36.97;;;21.25;;
24631;SDS011;59977;48.782;9.190;2022-12-10T15:39:51;41.00;;;21.67;;
24631;SDS011;59977;48.782;9.190;2022-12-10T15:45:23;34.08;;;18.73;;
24631;SDS011;59977;48.782;9.190;2022-12-10T15:47:59;35.85;;;20.52;;
24631;SDS011;59977;48.782;9.190;2022-12-10T15:50:25;39.22;;;20.58;;
24631;SDS011;59977;48.782;9.190;2022-12-10T15:52:51;33.33;;;20.38;;
24631;SDS011;59977;48.782;9.190;2022-12-10T15:55:17;44.30;;;22.00;;
24631;SDS011;59977;48.782;9.190;2022-12-10T15:57:42;35.63;;;19.42;;
24631;SDS011;59977;48.782;9.190;2022-12-10T16:00:24;32.83;;;19.85;;
24631;SDS011;59977;48.782;9.190;2022-12-10T16:05:23;32.08;;;18.95;;
24631;SDS011;59977;48.782;9.190;2022-12-10T16:07:50;35.15;;;18.52;;
24631;SDS011;59977;48.782;9.190;2022-12-10T16:10:19;33.30;;;17.48;;
24631;SDS011;59977;48.782;9.190;2022-12-10T16:12:48;28.90;;;17.88;;
24631;SDS011;59977;48.782;9.190;2022-12-10T16:15:24;30.00;;;17.25;;
24631;SDS011;59977;48.782;9.190;2022-12-10T16:17:52;29.25;;;18.05;;
24631;SDS011;59977;48.782;9.190;2022-12-10T16:22:53;29.02;;;17.48;;
24631;SDS011;59977;48.782;9.190;2022-12-10T16:25:22;32.97;;;18.73;;
24631;SDS011;59977;48.782;9.190;2022-12-10T16:27:48;31.75;;;18.02;;
24631;SDS011;59977;48.782;9.190;2022-12-10T16:30:18;28.92;;;17.88;;
24631;SDS011;59977;48.782;9.190;2022-12-10T16:32:46;29.63;;;17.65;;
24631;SDS011;59977;48.782;9.190;2022-12-10T16:35:13;33.72;;;18.60;;
24631;SDS011;59977;48.782;9.190;2022-12-10T16:37:42;35.25;;;18.88;;
24631;SDS011;59977;48.782;9.190;2022-12-10T16:40:10;33.95;;;19.40;;
24631;SDS011;59977;48.782;9.190;2022-12-10T16:42:37;31.52;;;18.35;;
24631;SDS011;59977;48.782;9.190;2022-12-10T16:45:13;32.35;;;18.73;;
24631;SDS011;59977;48.782;9.190;2022-12-10T16:47:44;31.07;;;18.27;;
24631;SDS011;59977;48.782;9.190;2022-12-10T16:50:10;26.85;;;17.55;;
24631;SDS011;59977;48.782;9.190;2022-12-10T16:52:36;34.65;;;18.75;;
24631;SDS011;59977;48.782;9.190;2022-12-10T16:55:02;29.63;;;17.50;;
24631;SDS011;59977;48.782;9.190;2022-12-10T16:57:28;32.78;;;16.45;;
24631;SDS011;59977;48.782;9.190;2022-12-10T16:59:54;28.92;;;18.52;;
24631;SDS011;59977;48.782;9.190;2022-12-10T17:02:19;33.85;;;19.30;;
24631;SDS011;59977;48.782;9.190;2022-12-10T17:04:45;31.50;;;18.83;;
24631;SDS011;59977;48.782;9.190;2022-12-10T17:07:11;35.72;;;19.05;;
24631;SDS011;59977;48.782;9.190;2022-12-10T17:09:38;30.98;;;17.10;;
24631;SDS011;59977;48.782;9.190;2022-12-10T17:12:04;34.90;;;18.00;;
24631;SDS011;59977;48.782;9.190;2022-12-10T17:14:32;28.50;;;17.20;;
24631;SDS011;59977;48.782;9.190;2022-12-10T17:17:01;31.23;;;17.35;;
24631;SDS011;59977;48.782;9.190;2022-12-10T17:19:29;28.77;;;17.35;;
24631;SDS011;59977;48.782;9.190;2022-12-10T17:21:57;30.83;;;17.95;;
24631;SDS011;59977;48.782;9.190;2022-12-10T17:24:23;32.83;;;18.20;;
24631;SDS011;59977;48.782;9.190;2022-12-10T17:26:49;34.85;;;19.45;;
24631;SDS011;59977;48.782;9.190;2022-12-10T17:29:17;31.80;;;18.20;;
24631;SDS011;59977;48.782;9.190;2022-12-10T17:31:45;34.72;;;18.38;;
24631;SDS011;59977;48.782;9.190;2022-12-10T17:34:11;30.45;;;18.92;;
24631;SDS011;59977;48.782;9.190;2022-12-10T17:36:38;30.73;;;18.63;;
24631;SDS011;59977;48.782;9.190;2022-12-10T17:39:05;34.60;;;18.00;;
24631;SDS011;59977;48.782;9.190;2022-12-10T17:41:31;29.13;;;16.98;;
24631;SDS011;59977;48.782;9.190;2022-12-10T17:43:57;30.33;;;19.02;;
24631;SDS011;59977;48.782;9.190;2022-12-10T17:46:23;32.17;;;19.38;;
24631;SDS011;59977;48.782;9.190;2022-12-10T17:48:50;32.75;;;18.25;;
24631;SDS011;59977;48.782;9.190;2022-12-10T17:51:16;31.13;;;17.63;;
24631;SDS011;59977;48.782;9.190;2022-12-10T17:53:42;31.08;;;18.40;;
24631;SDS011;59977;48.782;9.190;2022-12-10T17:56:15;29.08;;;15.63;;
24631;SDS011;59977;48.782;9.190;2022-12-10T17:58:43;34.00;;;18.75;;
24631;SDS011;59977;48.782;9.190;2022-12-10T18:01:08;34.83;;;19.65;;
24631;SDS011;59977;48.782;9.190;2022-12-10T18:03:35;30.83;;;18.83;;
24631;SDS011;59977;48.782;9.190;2022-12-10T18:06:03;36.17;;;18.98;;
24631;SDS011;59977;48.782;9.190;2022-12-10T18:08:29;31.88;;;18.77;;
24631;SDS011;59977;48.782;9.190;2022-12-10T18:10:55;34.85;;;21.25;;
24631;SDS011;59977;48.782;9.190;2022-12-10T18:13:22;36.83;;;21.35;;
24631;SDS011;59977;48.782;9.190;2022-12-10T18:15:48;34.58;;;20.73;;
24631;SDS011;59977;48.782;9.190;2022-12-10T18:18:14;29.67;;;19.00;;
24631;SDS011;59977;48.782;9.190;2022-12-10T18:20:40;33.20;;;17.65;;
24631;SDS011;59977;48.782;9.190;2022-12-10T18:23:07;35.67;;;18.67;;
24631;SDS011;59977;48.782;9.190;2022-12-10T18:25:35;28.27;;;17.88;;
24631;SDS011;59977;48.782;9.190;2022-12-10T18:28:02;29.48;;;17.23;;
24631;SDS011;59977;48.782;9.190;2022-12-10T18:30:39;39.70;;;19.98;;
24631;SDS011;59977;48.782;9.190;2022-12-10T18:33:05;33.85;;;20.15;;
24631;SDS011;59977;48.782;9.190;2022-12-10T18:35:33;33.70;;;19.80;;
24631;SDS011;59977;48.782;9.190;2022-12-10T18:37:59;32.25;;;18.98;;
24631;SDS011;59977;48.782;9.190;2022-12-10T18:40:24;29.88;;;19.13;;
24631;SDS011;59977;48.782;9.190;2022-12-10T18:42:50;36.58;;;20.52;;
24631;SDS011;59977;48.782;9.190;2022-12-10T18:45:16;34.58;;;19.75;;
24631;SDS011;59977;48.782;9.190;2022-12-10T18:47:42;30.10;;;18.83;;
24631;SDS011;59977;48.782;9.190;2022-12-10T18:50:19;31.58;;;18.50;;
24631;SDS011;59977;48.782;9.190;2022-12-10T18:52:48;32.35;;;19.63;;
24631;SDS011;59977;48.782;9.190;2022-12-10T18:55:14;35.30;;;18.77;;
24631;SDS011;59977;48.782;9.190;2022-12-10T18:57:42;31.75;;;19.38;;
24631;SDS011;59977;48.782;9.190;2022-12-10T19:00:15;29.65;;;18.58;;
24631;SDS011;59977;48.782;9.190;2022-12-10T19:02:44;32.20;;;19.42;;
24631;SDS011;59977;48.782;9.190;2022-12-10T19:05:09;29.58;;;18.75;;
24631;SDS011;59977;48.782;9.190;2022-12-10T19:07:35;31.38;;;17.60;;
24631;SDS011;59977;48.782;9.190;2022-12-10T19:10:03;31.67;;;19.55;;
24631;SDS011;59977;48.782;9.190;2022-12-10T19:12:36;32.20;;;19.45;;
24631;SDS011;59977;48.782;9.190;2022-12-10T19:15:01;30.58;;;18.58;;
24631;SDS011;59977;48.782;9.190;2022-12-10T19:17:29;35.33;;;20.92;;
24631;SDS011;59977;48.782;9.190;2022-12-10T19:19:55;35.08;;;19.75;;
24631;SDS011;59977;48.782;9.190;2022-12-10T19:22:21;32.45;;;19.83;;
24631;SDS011;59977;48.782;9.190;2022-12-10T19:24:46;30.95;;;18.90;;
24631;SDS011;59977;48.782;9.190;2022-12-10T19:27:12;31.88;;;18.90;;
24631;SDS011;59977;48.782;9.190;2022-12-10T19:29:37;34.45;;;20.30;;
24631;SDS011;59977;48.782;9.190;2022-12-10T19:32:05;33.75;;;19.42;;
24631;SDS011;59977;48.782;9.190;2022-12-10T19:34:31;35.78;;;20.00;;
24631;SDS011;59977;48.782;9.190;2022-12-10T19:36:58;36.58;;;20.40;;
24631;SDS011;59977;48.782;9.190;2022-12-10T19:39:24;37.20;;;21.70;;
24631;SDS011;59977;48.782;9.190;2022-12-10T19:41:51;37.80;;;21.83;;
24631;SDS011;59977;48.782;9.190;2022-12-10T19:44:17;35.72;;;20.75;;
24631;SDS011;59977;48.782;9.190;2022-12-10T19:46:43;36.20;;;21.75;;
24631;SDS011;59977;48.782;9.190;2022-12-10T19:49:13;37.00;;;22.58;;
24631;SDS011;59977;48.782;9.190;2022-12-10T19:51:40;38.40;;;20.52;;
24631;SDS011;59977;48.782;9.190;2022-12-10T19:54:07;33.95;;;18.65;;
24631;SDS011;59977;48.782;9.190;2022-12-10T19:56:33;36.00;;;20.60;;
24631;SDS011;59977;48.782;9.190;2022-12-10T19:59:00;37.80;;;21.67;;
24631;SDS011;59977;48.782;9.190;2022-12-10T20:01:28;35.33;;;21.60;;
24631;SDS011;59977;48.782;9.190;2022-12-10T20:03:54;37.03;;;21.80;;
24631;SDS011;59977;48.782;9.190;2022-12-10T20:08:59;36.38;;;20.10;;
24631;SDS011;59977;48.782;9.190;2022-12-10T20:11:27;34.90;;;20.52;;
24631;SDS011;59977;48.782;9.190;2022-12-10T20:13:54;32.63;;;20.10;;
24631;SDS011;59977;48.782;9.190;2022-12-10T20:16:25;39.13;;;22.52;;
24631;SDS011;59977;48.782;9.190;2022-12-10T20:18:55;43.13;;;25.60;;
24631;SDS011;59977;48.782;9.190;2022-12-10T20:21:21;39.00;;;23.60;;
24631;SDS011;59977;48.782;9.190;2022-12-10T20:23:48;33.80;;;20.45;;
24631;SDS011;59977;48.782;9.190;2022-12-10T20:26:32;30.00;;;18.80;;
24631;SDS011;59977;48.782;9.190;2022-12-10T20:29:00;30.33;;;18.90;;
24631;SDS011;59977;48.782;9.190;2022-12-10T20:31:26;37.50;;;20.98;;
24631;SDS011;59977;48.782;9.190;2022-12-10T20:33:54;36.30;;;20.45;;
24631;SDS011;59977;48.782;9.190;2022-12-10T20:36:20;37.30;;;21.23;;
24631;SDS011;59977;48.782;9.190;2022-12-10T20:38:48;32.83;;;19.75;;
24631;SDS011;59977;48.782;9.190;2022-12-10T20:41:14;30.25;;;18.33;;
24631;SDS011;59977;48.782;9.190;2022-12-10T20:43:42;32.88;;;18.23;;
24631;SDS011;59977;48.782;9.190;2022-12-10T20:46:27;31.42;;;18.65;;
24631;SDS011;59977;48.782;9.190;2022-12-10T20:48:56;32.40;;;19.02;;
24631;SDS011;59977;48.782;9.190;2022-12-10T20:51:23;37.15;;;19.83;;
24631;SDS011;59977;48.782;9.190;2022-12-10T20:53:49;38.60;;;19.13;;
24631;SDS011;59977;48.782;9.190;2022-12-10T20:56:16;33.70;;;19.17;;
24631;SDS011;59977;48.782;9.190;2022-12-10T20:58:43;31.48;;;19.33;;
24631;SDS011;59977;48.782;9.190;2022-12-10T21:01:09;32.30;;;19.35;;
24631;SDS011;59977;48.782;9.190;2022-12-10T21:03:35;33.13;;;20.17;;
24631;SDS011;59977;48.782;9.190;2022-12-10T21:06:01;32.55;;;18.85;;
24631;SDS011;59977;48.782;9.190;2022-12-10T21:08:27;29.30;;;16.98;;
24631;SDS011;59977;48.782;9.190;2022-12-10T21:10:53;31.92;;;18.63;;
24631;SDS011;59977;48.782;9.190;2022-12-10T21:13:21;37.08;;;20.27;;
24631;SDS011;59977;48.782;9.190;2022-12-10T21:15:49;36.15;;;21.33;;
24631;SDS011;59977;48.782;9.190;2022-12-10T21:18:15;28.55;;;17.00;;
24631;SDS011;59977;48.782;9.190;2022-12-10T21:20:42;32.80;;;18.92;;
24631;SDS011;59977;48.782;9.190;2022-12-10T21:23:09;31.77;;;18.27;;
24631;SDS011;59977;48.782;9.190;2022-12-10T21:25:36;31.08;;;17.95;;
24631;SDS011;59977;48.782;9.190;2022-12-10T21:28:02;32.88;;;18.05;;
24631;SDS011;59977;48.782;9.190;2022-12-10T21:30:29;29.40;;;18.75;;
24631;SDS011;59977;48.782;9.190;2022-12-10T21:32:55;32.22;;;17.90;;
24631;SDS011;59977;48.782;9.190;2022-12-10T21:35:21;28.25;;;17.05;;
24631;SDS011;59977;48.782;9.190;2022-12-10T21:37:47;30.52;;;17.13;;
24631;SDS011;59977;48.782;9.190;2022-12-10T21:40:13;30.20;;;17.45;;
24631;SDS011;59977;48.782;9.190;2022-12-10T21:42:39;29.25;;;17.95;;
24631;SDS011;59977;48.782;9.190;2022-12-10T21:45:26;27.95;;;17.10;;
24631;SDS011;59977;48.782;9.190;2022-12-10T21:47:57;30.92;;;17.90;;
24631;SDS011;59977;48.782;9.190;2022-12-10T21:50:23;31.35;;;18.20;;
24631;SDS011;59977;48.782;9.190;2022-12-10T21:52:49;31.15;;;17.70;;
24631;SDS011;59977;48.782;9.190;2022-12-10T21:55:16;26.88;;;17.17;;
24631;SDS011;59977;48.782;9.190;2022-12-10T21:57:43;30.23;;;18.35;;
24631;SDS011;59977;48.782;9.190;2022-12-10T22:00:09;31.67;;;19.20;;
24631;SDS011;59977;48.782;9.190;2022-12-10T22:02:37;29.75;;;18.17;;
24631;SDS011;59977;48.782;9.190;2022-12-10T22:05:03;31.30;;;18.67;;
24631;SDS011;59977;48.782;9.190;2022-12-10T22:07:30;29.50;;;17.70;;
24631;SDS011;59977;48.782;9.190;2022-12-10T22:09:55;33.40;;;18.92;;
24631;SDS011;59977;48.782;9.190;2022-12-10T22:12:21;33.47;;;19.98;;
24631;SDS011;59977;48.782;9.190;2022-12-10T22:14:46;34.78;;;18.63;;
24631;SDS011;59977;48.782;9.190;2022-12-10T22:17:12;32.33;;;18.33;;
24631;SDS011;59977;48.782;9.190;2022-12-10T22:19:38;30.63;;;18.60;;
24631;SDS011;59977;48.782;9.190;2022-12-10T22:22:04;30.42;;;18.83;;
24631;SDS011;59977;48.782;9.190;2022-12-10T22:24:30;34.20;;;18.55;;
24631;SDS011;59977;48.782;9.190;2022-12-10T22:26:56;29.17;;;16.88;;
24631;SDS011;59977;48.782;9.190;2022-12-10T22:29:22;25.33;;;15.40;;
24631;SDS011;59977;48.782;9.190;2022-12-10T22:31:49;31.25;;;17.33;;
24631;SDS011;59977;48.782;9.190;2022-12-10T22:34:15;27.52;;;15.90;;
24631;SDS011;59977;48.782;9.190;2022-12-10T22:36:41;28.13;;;16.65;;
24631;SDS011;59977;48.782;9.190;2022-12-10T22:39:07;28.63;;;17.15;;
24631;SDS011;59977;48.782;9.190;2022-12-10T22:41:34;29.00;;;16.42;;
24631;SDS011;59977;48.782;9.190;2022-12-10T22:44:00;23.80;;;14.40;;
24631;SDS011;59977;48.782;9.190;2022-12-10T22:46:25;27.48;;;16.60;;
24631;SDS011;59977;48.782;9.190;2022-12-10T22:48:51;26.55;;;16.50;;
24631;SDS011;59977;48.782;9.190;2022-12-10T22:51:17;27.15;;;16.77;;
24631;SDS011;59977;48.782;9.190;2022-12-10T22:53:43;28.95;;;16.88;;
24631;SDS011;59977;48.782;9.190;2022-12-10T22:56:09;29.60;;;17.05;;
24631;SDS011;59977;48.782;9.190;2022-12-10T22:58:36;29.52;;;17.13;;
24631;SDS011;59977;48.782;9.190;2022-12-10T23:01:02;25.85;;;15.82;;
24631;SDS011;59977;48.782;9.190;2022-12-10T23:03:28;24.30;;;14.82;;
24631;SDS011;59977;48.782;9.190;2022-12-10T23:05:55;28.05;;;16.38;;
24631;SDS011;59977;48.782;9.190;2022-12-10T23:08:21;28.23;;;16.88;;
24631;SDS011;59977;48.782;9.190;2022-12-10T23:10:47;34.25;;;16.60;;
24631;SDS011;59977;48.782;9.190;2022-12-10T23:13:13;27.90;;;16.90;;
24631;SDS011;59977;48.782;9.190;2022-12-10T23:15:45;31.92;;;16.48;;
24631;SDS011;59977;48.782;9.190;2022-12-10T23:18:12;28.08;;;17.42;;
24631;SDS011;59977;48.782;9.190;2022-12-10T23:20:38;29.48;;;16.98;;
24631;SDS011;59977;48.782;9.190;2022-12-10T23:23:04;27.27;;;16.67;;
24631;SDS011;59977;48.782;9.190;2022-12-10T23:25:30;29.25;;;16.92;;
24631;SDS011;59977;48.782;9.190;2022-12-10T23:27:55;27.60;;;17.35;;
24631;SDS011;59977;48.782;9.190;2022-12-10T23:30:21;29.40;;;16.83;;
24631;SDS011;59977;48.782;9.190;2022-12-10T23:32:46;28.00;;;17.27;;
24631;SDS011;59977;48.782;9.190;2022-12-10T23:35:12;36.45;;;21.10;;
24631;SDS011;59977;48.782;9.190;2022-12-10T23:37:38;34.83;;;20.73;;
24631;SDS011;59977;48.782;9.190;2022-12-10T23:40:04;28.40;;;17.13;;
24631;SDS011;59977;48.782;9.190;2022-12-10T23:42:31;34.72;;;20.52;;
24631;SDS011;59977;48.782;9.190;2022-12-10T23:44:57;33.03;;;18.60;;
24631;SDS011;59977;48.782;9.190;2022-12-10T23:47:23;30.80;;;17.02;;
24631;SDS011;59977;48.782;9.190;2022-12-10T23:49:50;31.65;;;18.08;;
24631;SDS011;59977;48.782;9.190;2022-12-10T23:52:16;30.02;;;18.17;;
24631;SDS011;59977;48.782;9.190;2022-12-10T23:54:42;39.95;;;19.13;;
24631;SDS011;59977;48.782;9.190;2022-12-10T23:57:07;30.75;;;18.33;;
24631;SDS011;59977;48.782;9.190;2022-12-10T23:59:33;31.38;;;18.80;;
